KFAF/FAF METAR and TAF weather

Enter ICAO airport designator
Station Type Date Time Source
KFAF METAR 2018/12/10 12:56 UTC NOAA

KFAF 101256Z AUTO 01008KT 10SM SCT090 02/M04 A3003 RMK AO2 RAE29 SLP172 P0000 T00151036 $


Station Type Date Time Source
KFAF Decoded METAR 2018/12/10 12:56 UTC NOAA

Fort Eustis / Felker, VA, United States (KFAF) 37-08N 076-37W
Dec 10, 2018 - 07:56 AM EST / 2018.12.10 1256 UTC
Wind: from the N (010 degrees) at 9 MPH (8 KT):0
Visibility: 10 mile(s):0
Sky conditions: partly cloudy
Precipitation last hour: A trace
Temperature: 34.7 F (1.5 C)
Windchill: 28 F (-2 C):1
Dew Point: 25.5 F (-3.6 C)
Relative Humidity: 68%
Pressure (altimeter): 30.03 in. Hg (1016 hPa)
ob: KFAF 101256Z AUTO 01008KT 10SM SCT090 02/M04 A3003 RMK AO2 RAE29 SLP172 P0000 T00151036
cycle: 13

Station Type Date Time Source
KFAF TAF 2018/12/10 11:09 UTC NOAA

TAF TAF KFAF 101100Z 1011/1117 01011G17KT 8000 -RA SCT030 BKN050 QNH2998INS
BECMG 1013/1014 02010G15KT 9999 NSW SCT050 BKN080 QNH3006INS
BECMG 1015/1016 03009KT 9999 SCT020 BKN120 QNH3007INS
BECMG 1108/1109 35006KT 9999 SKC QNH3013INS TX04/1117Z TNM01/1111Z


Example: see airport list